sensor_id;sensor_type;location;lat;lon;timestamp;pressure;altitude;pressure_sealevel;temperature;humidity
48035;BME280;33812;46.480;6.834;2023-10-31T00:02:52;92603.78;;;21.93;43.61
48035;BME280;33812;46.480;6.834;2023-10-31T00:06:54;92611.16;;;21.96;43.54
48035;BME280;33812;46.480;6.834;2023-10-31T00:10:55;92616.16;;;22.07;42.98
48035;BME280;33812;46.480;6.834;2023-10-31T00:14:59;92613.09;;;22.05;43.15
48035;BME280;33812;46.480;6.834;2023-10-31T00:19:02;92621.84;;;22.04;42.95
48035;BME280;33812;46.480;6.834;2023-10-31T00:23:04;92618.13;;;22.07;42.89
48035;BME280;33812;46.480;6.834;2023-10-31T00:27:06;92624.91;;;22.06;42.89
48035;BME280;33812;46.480;6.834;2023-10-31T00:31:08;92632.75;;;22.07;42.85
48035;BME280;33812;46.480;6.834;2023-10-31T00:35:13;92627.50;;;22.09;42.83
48035;BME280;33812;46.480;6.834;2023-10-31T00:39:15;92628.00;;;22.08;42.95
48035;BME280;33812;46.480;6.834;2023-10-31T00:43:16;92620.91;;;22.07;42.98
48035;BME280;33812;46.480;6.834;2023-10-31T00:47:18;92626.75;;;22.09;42.68
48035;BME280;33812;46.480;6.834;2023-10-31T00:51:21;92626.44;;;22.07;42.93
48035;BME280;33812;46.480;6.834;2023-10-31T00:55:23;92627.38;;;22.04;42.82
48035;BME280;33812;46.480;6.834;2023-10-31T00:59:25;92630.16;;;22.04;42.68
48035;BME280;33812;46.480;6.834;2023-10-31T01:03:27;92630.47;;;22.06;42.70
48035;BME280;33812;46.480;6.834;2023-10-31T01:07:30;92634.75;;;22.07;42.72
48035;BME280;33812;46.480;6.834;2023-10-31T01:11:32;92638.47;;;22.04;42.60
48035;BME280;33812;46.480;6.834;2023-10-31T01:15:33;92637.69;;;22.03;42.58
48035;BME280;33812;46.480;6.834;2023-10-31T01:19:35;92643.03;;;22.07;42.62
48035;BME280;33812;46.480;6.834;2023-10-31T01:23:38;92650.13;;;22.08;42.59
48035;BME280;33812;46.480;6.834;2023-10-31T01:27:40;92655.34;;;22.06;42.46
48035;BME280;33812;46.480;6.834;2023-10-31T01:31:42;92663.97;;;22.08;42.33
48035;BME280;33812;46.480;6.834;2023-10-31T01:35:44;92661.19;;;22.08;42.21
48035;BME280;33812;46.480;6.834;2023-10-31T01:39:47;92664.44;;;22.06;42.36
48035;BME280;33812;46.480;6.834;2023-10-31T01:43:50;92667.38;;;22.03;42.17
48035;BME280;33812;46.480;6.834;2023-10-31T01:47:51;92662.41;;;22.07;42.21
48035;BME280;33812;46.480;6.834;2023-10-31T01:51:54;92662.09;;;22.05;42.27
48035;BME280;33812;46.480;6.834;2023-10-31T01:55:58;92669.50;;;22.08;42.08
48035;BME280;33812;46.480;6.834;2023-10-31T02:00:02;92672.25;;;22.08;42.35
48035;BME280;33812;46.480;6.834;2023-10-31T02:04:04;92671.31;;;22.11;42.23
48035;BME280;33812;46.480;6.834;2023-10-31T02:08:06;92679.00;;;22.07;42.35
48035;BME280;33812;46.480;6.834;2023-10-31T02:12:10;92684.84;;;22.09;42.22
48035;BME280;33812;46.480;6.834;2023-10-31T02:16:12;92688.09;;;22.07;42.03
48035;BME280;33812;46.480;6.834;2023-10-31T02:20:14;92695.91;;;22.09;42.10
48035;BME280;33812;46.480;6.834;2023-10-31T02:24:17;92707.75;;;22.09;41.70
48035;BME280;33812;46.480;6.834;2023-10-31T02:28:18;92710.03;;;22.11;41.72
48035;BME280;33812;46.480;6.834;2023-10-31T02:32:20;92697.91;;;22.08;41.77
48035;BME280;33812;46.480;6.834;2023-10-31T02:36:22;92706.81;;;22.13;41.76
48035;BME280;33812;46.480;6.834;2023-10-31T02:40:25;92701.44;;;22.09;41.68
48035;BME280;33812;46.480;6.834;2023-10-31T02:44:27;92698.38;;;22.07;41.76
48035;BME280;33812;46.480;6.834;2023-10-31T02:48:29;92700.97;;;22.10;41.59
48035;BME280;33812;46.480;6.834;2023-10-31T02:52:32;92698.81;;;22.15;41.51
48035;BME280;33812;46.480;6.834;2023-10-31T02:56:35;92692.66;;;22.10;41.58
48035;BME280;33812;46.480;6.834;2023-10-31T03:00:37;92697.72;;;22.12;41.61
48035;BME280;33812;46.480;6.834;2023-10-31T03:04:39;92685.44;;;22.13;41.34
48035;BME280;33812;46.480;6.834;2023-10-31T03:08:41;92676.84;;;22.11;41.42
48035;BME280;33812;46.480;6.834;2023-10-31T03:12:44;92681.59;;;22.10;41.35
48035;BME280;33812;46.480;6.834;2023-10-31T03:16:46;92664.34;;;22.16;41.36
48035;BME280;33812;46.480;6.834;2023-10-31T03:20:48;92670.34;;;22.14;41.45
48035;BME280;33812;46.480;6.834;2023-10-31T03:24:49;92646.69;;;22.13;41.53
48035;BME280;33812;46.480;6.834;2023-10-31T03:28:52;92651.47;;;22.13;41.47
48035;BME280;33812;46.480;6.834;2023-10-31T03:32:57;92654.53;;;22.15;41.47
48035;BME280;33812;46.480;6.834;2023-10-31T03:36:59;92658.06;;;22.15;41.54
48035;BME280;33812;46.480;6.834;2023-10-31T03:41:01;92657.78;;;22.13;41.59
48035;BME280;33812;46.480;6.834;2023-10-31T03:45:05;92652.97;;;22.14;41.72
48035;BME280;33812;46.480;6.834;2023-10-31T03:49:07;92649.00;;;22.15;41.29
48035;BME280;33812;46.480;6.834;2023-10-31T03:53:09;92640.22;;;22.16;41.27
48035;BME280;33812;46.480;6.834;2023-10-31T03:57:11;92640.41;;;22.13;41.47
48035;BME280;33812;46.480;6.834;2023-10-31T04:01:14;92648.69;;;22.13;41.30
48035;BME280;33812;46.480;6.834;2023-10-31T04:05:16;92649.66;;;22.09;41.37
48035;BME280;33812;46.480;6.834;2023-10-31T04:09:18;92658.41;;;22.08;41.32
48035;BME280;33812;46.480;6.834;2023-10-31T04:13:20;92664.81;;;22.14;42.09
48035;BME280;33812;46.480;6.834;2023-10-31T04:17:23;92662.72;;;22.09;42.90
48035;BME280;33812;46.480;6.834;2023-10-31T04:21:27;92665.78;;;22.11;42.94
48035;BME280;33812;46.480;6.834;2023-10-31T04:25:28;92674.94;;;22.17;43.78
48035;BME280;33812;46.480;6.834;2023-10-31T04:29:30;92693.75;;;22.13;43.39
48035;BME280;33812;46.480;6.834;2023-10-31T04:33:33;92694.97;;;22.12;43.77
48035;BME280;33812;46.480;6.834;2023-10-31T04:37:35;92685.16;;;22.11;43.54
48035;BME280;33812;46.480;6.834;2023-10-31T04:41:37;92702.22;;;22.09;43.67
48035;BME280;33812;46.480;6.834;2023-10-31T04:45:39;92710.03;;;22.11;43.59
48035;BME280;33812;46.480;6.834;2023-10-31T04:49:42;92715.09;;;22.13;43.58
48035;BME280;33812;46.480;6.834;2023-10-31T04:53:43;92723.41;;;22.13;43.23
48035;BME280;33812;46.480;6.834;2023-10-31T04:57:46;92738.50;;;22.12;43.46
48035;BME280;33812;46.480;6.834;2023-10-31T05:01:48;92738.97;;;22.10;43.43
48035;BME280;33812;46.480;6.834;2023-10-31T05:05:52;92739.25;;;22.12;43.15
48035;BME280;33812;46.480;6.834;2023-10-31T05:09:54;92735.41;;;22.09;43.08
48035;BME280;33812;46.480;6.834;2023-10-31T05:13:56;92732.97;;;22.12;43.11
48035;BME280;33812;46.480;6.834;2023-10-31T05:17:58;92738.50;;;22.12;42.91
48035;BME280;33812;46.480;6.834;2023-10-31T05:22:01;92745.53;;;22.13;42.73
48035;BME280;33812;46.480;6.834;2023-10-31T05:26:05;92738.75;;;22.14;42.73
48035;BME280;33812;46.480;6.834;2023-10-31T05:30:07;92743.84;;;22.15;42.59
48035;BME280;33812;46.480;6.834;2023-10-31T05:34:09;92747.66;;;22.18;42.60
48035;BME280;33812;46.480;6.834;2023-10-31T05:38:13;92746.91;;;22.17;42.49
48035;BME280;33812;46.480;6.834;2023-10-31T05:42:15;92736.28;;;22.16;42.35
48035;BME280;33812;46.480;6.834;2023-10-31T05:46:16;92748.44;;;22.18;42.35
48035;BME280;33812;46.480;6.834;2023-10-31T05:50:18;92737.38;;;22.18;42.41
48035;BME280;33812;46.480;6.834;2023-10-31T05:54:22;92732.41;;;22.22;41.94
48035;BME280;33812;46.480;6.834;2023-10-31T05:58:25;92734.53;;;22.28;42.13
48035;BME280;33812;46.480;6.834;2023-10-31T06:02:27;92721.94;;;22.27;41.92
48035;BME280;33812;46.480;6.834;2023-10-31T06:06:32;92729.00;;;22.28;41.75
48035;BME280;33812;46.480;6.834;2023-10-31T06:10:35;92730.06;;;22.30;41.73
48035;BME280;33812;46.480;6.834;2023-10-31T06:14:37;92749.75;;;22.32;41.86
48035;BME280;33812;46.480;6.834;2023-10-31T06:18:39;92750.50;;;22.33;41.91
48035;BME280;33812;46.480;6.834;2023-10-31T06:22:41;92753.56;;;22.35;41.84
48035;BME280;33812;46.480;6.834;2023-10-31T06:26:44;92765.09;;;22.33;41.78
48035;BME280;33812;46.480;6.834;2023-10-31T06:30:46;92760.34;;;22.34;41.84
48035;BME280;33812;46.480;6.834;2023-10-31T06:34:48;92775.22;;;22.37;41.96
48035;BME280;33812;46.480;6.834;2023-10-31T06:38:50;92773.41;;;22.33;41.81
48035;BME280;33812;46.480;6.834;2023-10-31T06:42:53;92773.41;;;22.33;41.92
48035;BME280;33812;46.480;6.834;2023-10-31T06:46:54;92790.03;;;22.33;41.88
48035;BME280;33812;46.480;6.834;2023-10-31T06:50:56;92802.03;;;22.30;41.92
48035;BME280;33812;46.480;6.834;2023-10-31T06:54:58;92808.34;;;22.31;41.88
48035;BME280;33812;46.480;6.834;2023-10-31T06:59:01;92823.09;;;22.28;41.72
48035;BME280;33812;46.480;6.834;2023-10-31T07:03:03;92827.72;;;22.31;41.41
48035;BME280;33812;46.480;6.834;2023-10-31T07:07:09;92823.84;;;22.38;41.56
48035;BME280;33812;46.480;6.834;2023-10-31T07:11:11;92830.59;;;22.37;41.55
48035;BME280;33812;46.480;6.834;2023-10-31T07:15:14;92832.88;;;22.38;41.63
48035;BME280;33812;46.480;6.834;2023-10-31T07:19:16;92840.44;;;22.38;42.08
48035;BME280;33812;46.480;6.834;2023-10-31T07:23:18;92847.47;;;22.48;42.01
48035;BME280;33812;46.480;6.834;2023-10-31T07:27:19;92844.63;;;22.57;42.02
48035;BME280;33812;46.480;6.834;2023-10-31T07:31:23;92854.22;;;22.47;41.94
48035;BME280;33812;46.480;6.834;2023-10-31T07:35:32;92853.75;;;22.49;42.01
48035;BME280;33812;46.480;6.834;2023-10-31T07:39:34;92856.47;;;22.58;42.22
48035;BME280;33812;46.480;6.834;2023-10-31T07:43:36;92855.53;;;22.61;42.32
48035;BME280;33812;46.480;6.834;2023-10-31T07:47:39;92855.53;;;22.61;42.48
48035;BME280;33812;46.480;6.834;2023-10-31T07:51:41;92851.41;;;22.56;42.37
48035;BME280;33812;46.480;6.834;2023-10-31T07:55:43;92859.88;;;22.62;42.51
48035;BME280;33812;46.480;6.834;2023-10-31T07:59:44;92866.19;;;22.63;42.22
48035;BME280;33812;46.480;6.834;2023-10-31T08:03:48;92872.78;;;22.65;42.64
48035;BME280;33812;46.480;6.834;2023-10-31T08:07:49;92871.94;;;22.84;42.68
48035;BME280;33812;46.480;6.834;2023-10-31T08:11:51;92877.22;;;22.72;43.15
48035;BME280;33812;46.480;6.834;2023-10-31T08:15:53;92881.69;;;22.69;42.76
48035;BME280;33812;46.480;6.834;2023-10-31T08:19:57;92888.94;;;22.67;42.37
48035;BME280;33812;46.480;6.834;2023-10-31T08:24:00;92890.59;;;22.74;42.23
48035;BME280;33812;46.480;6.834;2023-10-31T08:28:01;92890.84;;;22.85;42.44
48035;BME280;33812;46.480;6.834;2023-10-31T08:32:04;92883.81;;;22.75;42.17
48035;BME280;33812;46.480;6.834;2023-10-31T08:36:08;92888.28;;;22.72;42.23
48035;BME280;33812;46.480;6.834;2023-10-31T08:40:10;92891.34;;;22.74;41.73
48035;BME280;33812;46.480;6.834;2023-10-31T08:44:12;92888.72;;;22.80;41.78
48035;BME280;33812;46.480;6.834;2023-10-31T08:48:14;92892.06;;;22.84;41.07
48035;BME280;33812;46.480;6.834;2023-10-31T08:52:17;92893.16;;;22.87;40.70
48035;BME280;33812;46.480;6.834;2023-10-31T08:56:19;92898.34;;;22.94;40.67
48035;BME280;33812;46.480;6.834;2023-10-31T09:00:21;92904.69;;;22.85;40.47
48035;BME280;33812;46.480;6.834;2023-10-31T09:04:23;92911.72;;;22.96;40.46
48035;BME280;33812;46.480;6.834;2023-10-31T09:08:26;92922.19;;;22.91;39.77
48035;BME280;33812;46.480;6.834;2023-10-31T09:12:28;92931.75;;;22.90;40.11
48035;BME280;33812;46.480;6.834;2023-10-31T09:16:30;92928.69;;;22.88;39.89
48035;BME280;33812;46.480;6.834;2023-10-31T09:20:32;92930.34;;;22.95;39.81
48035;BME280;33812;46.480;6.834;2023-10-31T09:24:35;92922.66;;;22.90;40.07
48035;BME280;33812;46.480;6.834;2023-10-31T09:28:37;92921.56;;;22.97;39.77
48035;BME280;33812;46.480;6.834;2023-10-31T09:32:39;92917.09;;;22.99;39.86
48035;BME280;33812;46.480;6.834;2023-10-31T09:36:42;92915.53;;;22.98;40.10
48035;BME280;33812;46.480;6.834;2023-10-31T09:40:45;92922.81;;;22.96;39.72
48035;BME280;33812;46.480;6.834;2023-10-31T09:44:47;92930.03;;;22.93;39.80
48035;BME280;33812;46.480;6.834;2023-10-31T09:48:49;92927.75;;;22.91;39.70
48035;BME280;33812;46.480;6.834;2023-10-31T09:52:52;92935.56;;;22.93;39.52
48035;BME280;33812;46.480;6.834;2023-10-31T09:56:55;92938.66;;;22.95;39.75
48035;BME280;33812;46.480;6.834;2023-10-31T10:00:57;92949.91;;;22.91;39.34
48035;BME280;33812;46.480;6.834;2023-10-31T10:04:59;92944.84;;;22.90;39.36
48035;BME280;33812;46.480;6.834;2023-10-31T10:09:01;92954.50;;;22.94;39.57
48035;BME280;33812;46.480;6.834;2023-10-31T10:13:08;92952.19;;;22.93;39.25
48035;BME280;33812;46.480;6.834;2023-10-31T10:17:21;92957.09;;;22.98;38.99
48035;BME280;33812;46.480;6.834;2023-10-31T10:21:23;92970.19;;;22.98;38.95
48035;BME280;33812;46.480;6.834;2023-10-31T10:25:27;92960.50;;;22.93;38.75
48035;BME280;33812;46.480;6.834;2023-10-31T10:29:30;92958.53;;;22.93;38.76
48035;BME280;33812;46.480;6.834;2023-10-31T10:33:33;92966.19;;;22.99;39.12
48035;BME280;33812;46.480;6.834;2023-10-31T10:37:37;92962.66;;;22.98;39.07
48035;BME280;33812;46.480;6.834;2023-10-31T10:41:42;92957.53;;;23.06;39.73
48035;BME280;33812;46.480;6.834;2023-10-31T10:45:51;92958.09;;;23.10;40.10
48035;BME280;33812;46.480;6.834;2023-10-31T10:49:55;92960.78;;;23.04;40.74
48035;BME280;33812;46.480;6.834;2023-10-31T10:54:07;92963.94;;;23.12;40.45
48035;BME280;33812;46.480;6.834;2023-10-31T10:58:15;92964.59;;;23.07;40.45
48035;BME280;33812;46.480;6.834;2023-10-31T11:02:19;92972.91;;;23.07;39.95
48035;BME280;33812;46.480;6.834;2023-10-31T11:06:21;92990.34;;;22.98;40.59
48035;BME280;33812;46.480;6.834;2023-10-31T11:10:24;92993.44;;;23.00;41.45
48035;BME280;33812;46.480;6.834;2023-10-31T11:14:27;92986.25;;;22.84;41.85
48035;BME280;33812;46.480;6.834;2023-10-31T11:18:32;92999.06;;;22.81;42.15
48035;BME280;33812;46.480;6.834;2023-10-31T11:22:37;92995.19;;;22.88;41.95
48035;BME280;33812;46.480;6.834;2023-10-31T11:26:50;92999.16;;;22.87;42.24
48035;BME280;33812;46.480;6.834;2023-10-31T11:30:52;93005.78;;;22.90;42.07
48035;BME280;33812;46.480;6.834;2023-10-31T11:35:00;93002.53;;;22.91;42.09
48035;BME280;33812;46.480;6.834;2023-10-31T11:39:14;93007.03;;;22.89;42.55
48035;BME280;33812;46.480;6.834;2023-10-31T11:43:18;93006.41;;;22.94;42.49
48035;BME280;33812;46.480;6.834;2023-10-31T11:47:22;93016.56;;;22.88;42.50
48035;BME280;33812;46.480;6.834;2023-10-31T11:51:25;93020.06;;;22.98;42.41
48035;BME280;33812;46.480;6.834;2023-10-31T11:55:27;93024.50;;;23.04;43.21
48035;BME280;33812;46.480;6.834;2023-10-31T11:59:36;93029.28;;;23.04;43.49
48035;BME280;33812;46.480;6.834;2023-10-31T12:03:39;93030.50;;;23.03;43.50
48035;BME280;33812;46.480;6.834;2023-10-31T12:07:43;93021.09;;;23.10;44.12
48035;BME280;33812;46.480;6.834;2023-10-31T12:11:45;93023.41;;;23.11;43.92
48035;BME280;33812;46.480;6.834;2023-10-31T12:15:51;93028.94;;;23.11;43.06
48035;BME280;33812;46.480;6.834;2023-10-31T12:19:55;93038.81;;;23.03;43.76
48035;BME280;33812;46.480;6.834;2023-10-31T12:24:03;93033.88;;;23.07;43.35
48035;BME280;33812;46.480;6.834;2023-10-31T12:28:05;93052.06;;;23.08;43.85
48035;BME280;33812;46.480;6.834;2023-10-31T12:32:12;93032.06;;;23.04;43.64
48035;BME280;33812;46.480;6.834;2023-10-31T12:36:14;93048.38;;;23.02;43.44
48035;BME280;33812;46.480;6.834;2023-10-31T12:40:18;93050.84;;;23.00;43.13
48035;BME280;33812;46.480;6.834;2023-10-31T12:44:23;93070.25;;;23.00;43.11
48035;BME280;33812;46.480;6.834;2023-10-31T12:48:27;93056.84;;;22.98;42.87
48035;BME280;33812;46.480;6.834;2023-10-31T12:52:45;93067.13;;;23.07;43.19
48035;BME280;33812;46.480;6.834;2023-10-31T12:56:48;93076.88;;;23.02;45.18
48035;BME280;33812;46.480;6.834;2023-10-31T13:00:51;93099.63;;;20.51;42.87
48035;BME280;33812;46.480;6.834;2023-10-31T13:05:07;93100.72;;;20.32;41.88
48035;BME280;33812;46.480;6.834;2023-10-31T13:09:11;93111.94;;;20.37;42.89
48035;BME280;33812;46.480;6.834;2023-10-31T13:13:14;93106.09;;;20.35;44.31
48035;BME280;33812;46.480;6.834;2023-10-31T13:17:16;93108.56;;;21.70;44.58
48035;BME280;33812;46.480;6.834;2023-10-31T13:21:19;93124.50;;;21.97;43.20
48035;BME280;33812;46.480;6.834;2023-10-31T13:25:21;93124.66;;;22.22;43.49
48035;BME280;33812;46.480;6.834;2023-10-31T13:29:24;93142.34;;;22.25;43.77
48035;BME280;33812;46.480;6.834;2023-10-31T13:33:27;93117.91;;;22.32;43.51
48035;BME280;33812;46.480;6.834;2023-10-31T13:37:29;93148.78;;;22.40;43.01
48035;BME280;33812;46.480;6.834;2023-10-31T13:41:31;93136.34;;;22.45;42.98
48035;BME280;33812;46.480;6.834;2023-10-31T13:45:41;93161.56;;;22.47;42.96
48035;BME280;33812;46.480;6.834;2023-10-31T13:49:43;93165.88;;;22.48;42.92
48035;BME280;33812;46.480;6.834;2023-10-31T13:53:45;93178.03;;;22.51;42.95
48035;BME280;33812;46.480;6.834;2023-10-31T13:57:48;93186.63;;;22.53;42.95
48035;BME280;33812;46.480;6.834;2023-10-31T14:01:59;93195.88;;;22.50;42.54
48035;BME280;33812;46.480;6.834;2023-10-31T14:06:06;93201.88;;;22.57;42.72
48035;BME280;33812;46.480;6.834;2023-10-31T14:10:08;93213.13;;;22.63;42.52
48035;BME280;33812;46.480;6.834;2023-10-31T14:14:10;93202.38;;;22.65;42.41
48035;BME280;33812;46.480;6.834;2023-10-31T14:18:20;93202.22;;;22.69;42.22
48035;BME280;33812;46.480;6.834;2023-10-31T14:22:38;93214.34;;;22.72;41.72
48035;BME280;33812;46.480;6.834;2023-10-31T14:26:41;93217.59;;;22.70;41.89
48035;BME280;33812;46.480;6.834;2023-10-31T14:30:44;93220.06;;;22.77;41.30
48035;BME280;33812;46.480;6.834;2023-10-31T14:34:47;93215.59;;;22.80;41.61
48035;BME280;33812;46.480;6.834;2023-10-31T14:38:50;93226.69;;;22.80;41.65
48035;BME280;33812;46.480;6.834;2023-10-31T14:42:53;93232.84;;;22.75;41.42
48035;BME280;33812;46.480;6.834;2023-10-31T14:47:05;93245.75;;;22.78;41.19
48035;BME280;33812;46.480;6.834;2023-10-31T14:51:13;93246.06;;;22.70;41.41
48035;BME280;33812;46.480;6.834;2023-10-31T14:55:15;93249.91;;;22.82;41.40
48035;BME280;33812;46.480;6.834;2023-10-31T14:59:17;93256.84;;;22.78;41.72
48035;BME280;33812;46.480;6.834;2023-10-31T15:03:21;93262.69;;;22.80;41.56
48035;BME280;33812;46.480;6.834;2023-10-31T15:07:24;93259.63;;;22.78;41.41
48035;BME280;33812;46.480;6.834;2023-10-31T15:11:25;93257.31;;;22.76;41.57
48035;BME280;33812;46.480;6.834;2023-10-31T15:15:28;93271.16;;;22.76;41.52
48035;BME280;33812;46.480;6.834;2023-10-31T15:19:30;93280.06;;;22.80;41.56
48035;BME280;33812;46.480;6.834;2023-10-31T15:23:33;93298.88;;;22.76;41.30
48035;BME280;33812;46.480;6.834;2023-10-31T15:27:37;93305.78;;;22.81;41.47
48035;BME280;33812;46.480;6.834;2023-10-31T15:31:43;93313.00;;;22.78;41.55
48035;BME280;33812;46.480;6.834;2023-10-31T15:35:45;93327.31;;;22.77;41.34
48035;BME280;33812;46.480;6.834;2023-10-31T15:39:48;93329.47;;;22.82;41.34
48035;BME280;33812;46.480;6.834;2023-10-31T15:43:51;93337.34;;;22.74;42.23
48035;BME280;33812;46.480;6.834;2023-10-31T15:47:54;93337.78;;;22.73;42.31
48035;BME280;33812;46.480;6.834;2023-10-31T15:51:56;93341.81;;;22.81;42.71
48035;BME280;33812;46.480;6.834;2023-10-31T15:55:59;93347.34;;;22.81;42.10
48035;BME280;33812;46.480;6.834;2023-10-31T16:00:02;93349.50;;;22.86;41.50
48035;BME280;33812;46.480;6.834;2023-10-31T16:04:05;93346.41;;;22.84;41.54
48035;BME280;33812;46.480;6.834;2023-10-31T16:08:08;93357.31;;;22.78;41.32
48035;BME280;33812;46.480;6.834;2023-10-31T16:12:11;93367.66;;;22.78;40.80
48035;BME280;33812;46.480;6.834;2023-10-31T16:16:13;93372.09;;;22.75;40.50
48035;BME280;33812;46.480;6.834;2023-10-31T16:20:15;93366.25;;;22.73;41.11
48035;BME280;33812;46.480;6.834;2023-10-31T16:24:17;93363.97;;;22.81;40.80
48035;BME280;33812;46.480;6.834;2023-10-31T16:28:24;93370.13;;;22.85;41.50
48035;BME280;33812;46.480;6.834;2023-10-31T16:32:28;93378.09;;;22.74;41.98
48035;BME280;33812;46.480;6.834;2023-10-31T16:36:31;93382.88;;;22.73;42.38
48035;BME280;33812;46.480;6.834;2023-10-31T16:40:33;93393.81;;;22.67;42.94
48035;BME280;33812;46.480;6.834;2023-10-31T16:44:36;93400.56;;;22.66;42.59
48035;BME280;33812;46.480;6.834;2023-10-31T16:48:39;93407.66;;;22.67;43.09
48035;BME280;33812;46.480;6.834;2023-10-31T16:52:42;93404.75;;;22.80;42.86
48035;BME280;33812;46.480;6.834;2023-10-31T16:56:44;93411.16;;;22.68;43.83
48035;BME280;33812;46.480;6.834;2023-10-31T17:00:47;93409.19;;;22.68;43.17
48035;BME280;33812;46.480;6.834;2023-10-31T17:04:48;93418.28;;;22.69;43.31
48035;BME280;33812;46.480;6.834;2023-10-31T17:08:50;93420.25;;;22.68;43.43
48035;BME280;33812;46.480;6.834;2023-10-31T17:12:52;93428.75;;;22.74;43.63
48035;BME280;33812;46.480;6.834;2023-10-31T17:16:55;93435.69;;;22.79;43.65
48035;BME280;33812;46.480;6.834;2023-10-31T17:20:57;93440.44;;;22.69;43.86
48035;BME280;33812;46.480;6.834;2023-10-31T17:24:59;93449.19;;;22.67;43.86
48035;BME280;33812;46.480;6.834;2023-10-31T17:29:01;93459.03;;;22.68;43.74
48035;BME280;33812;46.480;6.834;2023-10-31T17:33:05;93458.75;;;22.76;43.77
48035;BME280;33812;46.480;6.834;2023-10-31T17:37:07;93470.84;;;23.10;41.32
48035;BME280;33812;46.480;6.834;2023-10-31T17:41:08;93463.97;;;22.74;43.18
48035;BME280;33812;46.480;6.834;2023-10-31T17:45:10;93474.75;;;22.72;43.76
48035;BME280;33812;46.480;6.834;2023-10-31T17:49:14;93473.25;;;22.80;44.27
48035;BME280;33812;46.480;6.834;2023-10-31T17:53:16;93483.41;;;22.83;43.64
48035;BME280;33812;46.480;6.834;2023-10-31T17:57:18;93487.09;;;22.80;44.22
48035;BME280;33812;46.480;6.834;2023-10-31T18:01:19;93479.09;;;22.82;44.23
48035;BME280;33812;46.480;6.834;2023-10-31T18:05:23;93468.50;;;22.90;43.72
48035;BME280;33812;46.480;6.834;2023-10-31T18:09:24;93472.50;;;22.89;44.32
48035;BME280;33812;46.480;6.834;2023-10-31T18:13:26;93473.13;;;22.93;44.64
48035;BME280;33812;46.480;6.834;2023-10-31T18:17:28;93485.44;;;22.92;44.07
48035;BME280;33812;46.480;6.834;2023-10-31T18:21:31;93479.91;;;22.92;43.40
48035;BME280;33812;46.480;6.834;2023-10-31T18:25:33;93488.97;;;22.83;43.25
48035;BME280;33812;46.480;6.834;2023-10-31T18:29:35;93493.44;;;22.90;43.50
48035;BME280;33812;46.480;6.834;2023-10-31T18:33:37;93479.22;;;22.78;42.81
48035;BME280;33812;46.480;6.834;2023-10-31T18:37:40;93493.91;;;22.88;43.03
48035;BME280;33812;46.480;6.834;2023-10-31T18:41:42;93487.41;;;22.82;42.85
48035;BME280;33812;46.480;6.834;2023-10-31T18:45:44;93481.72;;;22.86;42.41
48035;BME280;33812;46.480;6.834;2023-10-31T18:49:48;93488.09;;;22.96;43.71
48035;BME280;33812;46.480;6.834;2023-10-31T18:53:51;93481.13;;;22.91;42.72
48035;BME280;33812;46.480;6.834;2023-10-31T18:57:54;93483.75;;;22.85;42.50
48035;BME280;33812;46.480;6.834;2023-10-31T19:01:56;93495.13;;;22.87;42.34
48035;BME280;33812;46.480;6.834;2023-10-31T19:05:58;93485.28;;;22.86;41.75
48035;BME280;33812;46.480;6.834;2023-10-31T19:10:02;93485.41;;;22.82;41.78
48035;BME280;33812;46.480;6.834;2023-10-31T19:14:05;93470.69;;;22.95;41.84
48035;BME280;33812;46.480;6.834;2023-10-31T19:18:07;93471.59;;;22.92;42.65
48035;BME280;33812;46.480;6.834;2023-10-31T19:22:08;93460.00;;;22.84;42.89
48035;BME280;33812;46.480;6.834;2023-10-31T19:26:12;93458.47;;;22.83;43.34
48035;BME280;33812;46.480;6.834;2023-10-31T19:30:14;93456.91;;;22.82;43.51
48035;BME280;33812;46.480;6.834;2023-10-31T19:34:17;93451.53;;;22.78;43.75
48035;BME280;33812;46.480;6.834;2023-10-31T19:38:19;93455.72;;;22.92;36.00
48035;BME280;33812;46.480;6.834;2023-10-31T19:42:22;93453.53;;;22.46;33.75
48035;BME280;33812;46.480;6.834;2023-10-31T19:46:23;93464.41;;;22.08;33.68
48035;BME280;33812;46.480;6.834;2023-10-31T19:50:26;93455.78;;;21.84;33.97
48035;BME280;33812;46.480;6.834;2023-10-31T19:54:28;93458.31;;;21.56;34.15
48035;BME280;33812;46.480;6.834;2023-10-31T19:58:31;93461.81;;;21.34;34.40
48035;BME280;33812;46.480;6.834;2023-10-31T20:02:33;93455.97;;;21.32;34.42
48035;BME280;33812;46.480;6.834;2023-10-31T20:06:35;93469.06;;;21.18;34.73
48035;BME280;33812;46.480;6.834;2023-10-31T20:10:37;93466.41;;;21.01;34.73
48035;BME280;33812;46.480;6.834;2023-10-31T20:14:40;93467.81;;;21.32;35.08
48035;BME280;33812;46.480;6.834;2023-10-31T20:18:43;93471.91;;;21.63;35.60
48035;BME280;33812;46.480;6.834;2023-10-31T20:22:44;93478.66;;;21.62;41.83
48035;BME280;33812;46.480;6.834;2023-10-31T20:26:49;93465.03;;;21.68;40.79
48035;BME280;33812;46.480;6.834;2023-10-31T20:30:52;93466.69;;;21.65;40.96
48035;BME280;33812;46.480;6.834;2023-10-31T20:34:54;93472.88;;;21.69;41.98
48035;BME280;33812;46.480;6.834;2023-10-31T20:38:56;93462.44;;;21.73;42.43
48035;BME280;33812;46.480;6.834;2023-10-31T20:42:58;93461.56;;;21.77;42.88
48035;BME280;33812;46.480;6.834;2023-10-31T20:47:01;93470.16;;;21.79;43.20
48035;BME280;33812;46.480;6.834;2023-10-31T20:51:04;93470.16;;;21.79;43.61
48035;BME280;33812;46.480;6.834;2023-10-31T20:55:07;93469.63;;;21.84;43.73
48035;BME280;33812;46.480;6.834;2023-10-31T20:59:08;93467.50;;;21.88;43.88
48035;BME280;33812;46.480;6.834;2023-10-31T21:03:12;93461.41;;;21.93;43.79
48035;BME280;33812;46.480;6.834;2023-10-31T21:07:14;93462.81;;;21.98;43.88
48035;BME280;33812;46.480;6.834;2023-10-31T21:11:17;93459.16;;;22.01;43.94
48035;BME280;33812;46.480;6.834;2023-10-31T21:15:19;93457.97;;;22.12;43.87
48035;BME280;33812;46.480;6.834;2023-10-31T21:19:23;93449.38;;;22.19;43.80
48035;BME280;33812;46.480;6.834;2023-10-31T21:23:25;93446.91;;;22.12;43.84
48035;BME280;33812;46.480;6.834;2023-10-31T21:27:27;93435.06;;;22.11;43.95